Main page
METAR-TAF:

METAR-TAF

Airports :

Tampere–Pirkkala Airport

Tampere, Finland

latitude: 61-25N, longitude: 023-35E, elevation: 112 m

Current weather observation

The report was made 22 minutes ago, at 21:50 UTC
Wind 17 kt from the South/Southwest with gusts up to 29 kt
Temperature 5°C
Humidity 81%
Pressure 981 hPa
Visibility 10 km or more
Overcast at a height of 2100 ft

METAR: EFTP 172150Z AUTO 21017G29KT 9999 OVC021 05/02 Q0981

Time: 00:12 (22:12 UTC)

Forecast

The report was made 1 hour and 44 minutes ago, at 20:28 UTC
Forecast valid from 17 at 21 UTC to 18 at 21 UTC
Wind 16 kt from the Southwest
Visibility 10 km or more
Broken clouds at a height of 2000 ft
Probability 40% :
Temporary
from 17 at 21 UTC to 18 at 03 UTC
Broken clouds at a height of 1400 ft

TAF: EFTP 172028Z 1721/1821 22016KT 9999 BKN020 PROB40 TEMPO 1721/1803 BKN014

Weather observations and forecasts of more than 4000 airports (METAR and TAF reports).

The available stations are represented by yellow and red dots on the map.

Hover mouse over dot to see the name of the station.

Then click to see weather observations and forecasts.

To change the map : click on the green buttons with a black cross to zoom in, on the green button with a dash to zoom out, or on the green arrows for adjacent maps.


METAR-TAF: